Time;durP1;ratioP1;P1;durP2;ratioP2;P2;SDS_P1;SDS_P2;PMS_P1;PMS_P2;Temp;Humidity;BMP_temperature;BMP_pressure;BME280_temperature;BME280_humidity;BME280_pressure;Samples;Min_cycle;Max_cycle;Signal;HPM_P1;HPM_P2
2022/07/11 00:01:07;;;;;;;1.13;0.70;;;16.20;59.80;16.50;97068.00;;;;5058880;28;20196;-92
2022/07/11 00:03:34;;;;;;;0.40;0.40;;;16.20;59.70;16.50;97076.00;;;;5053782;28;20228;-92
2022/07/11 00:06:01;;;;;;;0.50;0.50;;;16.20;59.70;16.50;97057.00;;;;5062924;28;20217;-93
2022/07/11 00:08:28;;;;;;;0.43;0.40;;;15.60;59.60;16.40;97059.00;;;;5063112;28;20224;-92
2022/07/11 00:10:56;;;;;;;0.40;0.40;;;16.10;59.90;16.40;97076.00;;;;5052981;28;20197;-91
2022/07/11 00:13:23;;;;;;;0.37;0.37;;;16.10;59.90;16.30;97065.00;;;;5061073;28;20227;-92
2022/07/11 00:15:52;;;;;;;0.43;0.43;;;16.00;59.90;16.30;97064.00;;;;5060349;28;20617;-92
2022/07/11 00:18:19;;;;;;;0.40;0.40;;;16.00;60.00;16.30;97065.00;;;;5059238;28;20205;-92
2022/07/11 00:20:47;;;;;;;0.30;0.30;;;16.00;60.00;16.30;97053.00;;;;5064864;28;20258;-92
2022/07/11 00:23:14;;;;;;;0.40;0.40;;;15.90;60.20;16.20;97056.00;;;;5059919;28;20542;-92
2022/07/11 00:25:41;;;;;;;0.47;0.47;;;15.90;60.20;16.20;97057.00;;;;5053130;28;20605;-92
2022/07/11 00:28:08;;;;;;;0.70;0.30;;;15.90;60.50;16.20;97054.00;;;;5060636;28;20271;-92
2022/07/11 00:30:36;;;;;;;0.53;0.30;;;15.90;60.70;16.20;97049.00;;;;5064218;28;20246;-92
2022/07/11 00:33:04;;;;;;;0.40;0.40;;;15.90;60.70;16.20;97058.00;;;;5061833;28;20189;-91
2022/07/11 00:35:31;;;;;;;0.30;0.30;;;15.80;60.80;16.20;97044.00;;;;5060852;28;20277;-92
2022/07/11 00:37:59;;;;;;;0.50;0.40;;;15.80;60.90;16.20;97051.00;;;;5055895;28;20227;-91
2022/07/11 00:40:26;;;;;;;0.90;0.30;;;15.80;60.90;16.20;97047.00;;;;5065074;28;20325;-91
2022/07/11 00:42:53;;;;;;;0.40;0.30;;;15.80;61.00;16.10;97045.00;;;;5058793;28;20632;-92
2022/07/11 00:45:20;;;;;;;0.70;0.40;;;15.80;61.10;16.10;97054.00;;;;5050320;28;20690;-92
2022/07/11 00:47:48;;;;;;;0.37;0.33;;;15.80;61.10;16.10;97044.00;;;;5069542;28;20212;-92
2022/07/11 00:50:18;;;;;;;0.93;0.70;;;15.80;61.30;16.10;97042.00;;;;5066420;28;20201;-91
2022/07/11 00:52:46;;;;;;;0.47;0.37;;;15.70;61.20;16.10;97040.00;;;;5069413;28;20192;-92
2022/07/11 00:55:14;;;;;;;0.50;0.40;;;15.70;61.30;16.10;97042.00;;;;5091023;22;20277;-87
2022/07/11 00:57:42;;;;;;;0.40;0.40;;;15.70;61.30;16.00;97034.00;;;;5092349;28;20260;-86
2022/07/11 01:00:12;;;;;;;1.90;0.50;;;15.70;62.10;16.00;97039.00;;;;5091793;28;20894;-87
2022/07/11 01:02:39;;;;;;;0.60;0.57;;;15.70;61.40;16.00;97030.00;;;;5091084;28;20672;-87
2022/07/11 01:05:08;;;;;;;2.67;0.50;;;15.70;61.40;16.00;97037.00;;;;5104575;28;20234;-87
2022/07/11 01:07:36;;;;;;;0.57;0.40;;;15.60;61.40;16.00;97035.00;;;;5111539;28;20214;-86
2022/07/11 01:10:05;;;;;;;0.50;0.40;;;15.70;61.50;16.00;97033.00;;;;5108322;28;20583;-87
2022/07/11 01:12:32;;;;;;;0.57;0.40;;;15.60;61.40;15.90;97035.00;;;;5110636;28;20262;-86
2022/07/11 01:15:00;;;;;;;0.40;0.40;;;15.60;61.50;15.90;97039.00;;;;5109787;28;20245;-87
2022/07/11 01:17:27;;;;;;;0.40;0.37;;;15.60;61.60;15.90;97033.00;;;;5111983;28;20213;-86
2022/07/11 01:19:54;;;;;;;0.73;0.50;;;15.60;61.60;15.90;97036.00;;;;5106430;28;20218;-87
2022/07/11 01:22:25;;;;;;;2.60;0.60;;;15.60;61.60;15.90;97035.00;;;;5113112;28;20221;-87
2022/07/11 01:24:55;;;;;;;1.23;0.60;;;15.60;61.80;15.90;97031.00;;;;5119521;28;20240;-87
2022/07/11 01:27:24;;;;;;;2.17;0.57;;;15.50;61.90;15.80;97028.00;;;;5114305;28;20598;-87
2022/07/11 01:29:51;;;;;;;0.70;0.50;;;15.50;62.00;15.80;97039.00;;;;5107947;28;20229;-86
2022/07/11 01:32:19;;;;;;;0.60;0.40;;;15.50;62.10;15.80;97027.00;;;;5113792;28;20254;-86
2022/07/11 01:34:46;;;;;;;0.40;0.40;;;15.50;62.30;15.80;97028.00;;;;5111908;28;20771;-86
2022/07/11 01:37:14;;;;;;;0.60;0.40;;;15.50;62.30;15.80;97020.00;;;;5111401;28;20199;-87
2022/07/11 01:39:41;;;;;;;1.40;0.50;;;15.50;62.50;15.80;97023.00;;;;5110898;28;20645;-87
2022/07/11 01:42:10;;;;;;;1.03;0.50;;;15.50;62.60;15.80;97024.00;;;;5103237;28;20288;-87
2022/07/11 01:44:37;;;;;;;1.73;0.50;;;15.50;62.70;15.90;97019.00;;;;5110523;28;20246;-87
2022/07/11 01:47:05;;;;;;;0.40;0.40;;;15.50;62.60;15.90;97015.00;;;;5102061;28;20226;-87
2022/07/11 01:49:32;;;;;;;0.63;0.60;;;15.50;62.70;15.90;97018.00;;;;5109464;28;20230;-87
2022/07/11 01:51:59;;;;;;;1.03;0.47;;;15.50;62.70;15.90;97022.00;;;;5108099;28;20191;-85
2022/07/11 01:54:26;;;;;;;0.50;0.50;;;15.50;62.80;15.90;97009.00;;;;5108790;28;20287;-87
2022/07/11 01:56:53;;;;;;;0.50;0.50;;;15.50;62.80;16.00;97002.00;;;;5109618;28;20239;-88
2022/07/11 01:59:22;;;;;;;0.50;0.47;;;15.60;62.90;16.00;97009.00;;;;5109524;28;20192;-88
2022/07/11 02:01:49;;;;;;;0.97;0.40;;;15.60;62.90;16.00;97006.00;;;;5109149;28;20281;-87
2022/07/11 02:04:16;;;;;;;0.50;0.50;;;15.60;63.10;16.10;97015.00;;;;5109481;28;20249;-87
2022/07/11 02:06:43;;;;;;;0.40;0.40;;;15.60;63.10;16.10;97019.00;;;;5099872;28;20218;-87
2022/07/11 02:09:10;;;;;;;0.40;0.40;;;15.60;63.10;16.10;97012.00;;;;5103825;28;20211;-87
2022/07/11 02:11:37;;;;;;;0.73;0.37;;;15.70;63.00;16.20;97008.00;;;;5105139;28;20231;-87
2022/07/11 02:14:04;;;;;;;1.43;0.37;;;15.70;63.00;16.20;97008.00;;;;5110619;28;20650;-88
2022/07/11 02:16:33;;;;;;;0.60;0.30;;;15.70;63.00;16.30;97008.00;;;;5108276;28;20282;-87
2022/07/11 02:19:00;;;;;;;0.77;0.70;;;15.80;63.00;16.30;97007.00;;;;5112058;28;20691;-87
2022/07/11 02:21:27;;;;;;;0.30;0.30;;;15.80;63.20;16.30;97006.00;;;;5106898;28;20252;-88
2022/07/11 02:23:54;;;;;;;0.60;0.60;;;15.90;63.40;16.40;97005.00;;;;5109197;28;20593;-88
2022/07/11 02:26:22;;;;;;;0.60;0.60;;;15.90;63.40;16.50;96991.00;;;;5108661;28;20195;-87
2022/07/11 02:28:49;;;;;;;1.23;0.43;;;15.90;63.40;16.50;96997.00;;;;5111245;28;20254;-87
2022/07/11 02:31:16;;;;;;;0.43;0.43;;;16.00;63.20;16.60;97009.00;;;;5111284;28;20282;-86
2022/07/11 02:33:44;;;;;;;1.10;0.53;;;16.00;63.20;16.70;97005.00;;;;5110406;28;20218;-87
2022/07/11 02:36:12;;;;;;;1.23;0.40;;;16.10;63.20;16.70;97007.00;;;;5110022;28;20187;-86
2022/07/11 02:38:39;;;;;;;0.50;0.50;;;16.20;63.20;16.70;96998.00;;;;5105083;28;20287;-86
2022/07/11 02:41:06;;;;;;;0.50;0.50;;;16.20;63.10;16.80;96999.00;;;;5105312;28;20186;-87
2022/07/11 02:43:33;;;;;;;0.50;0.50;;;16.30;63.80;16.80;97000.00;;;;5107574;28;20188;-86
2022/07/11 02:46:01;;;;;;;0.40;0.40;;;16.30;62.80;16.90;97005.00;;;;5100619;28;20558;-87
2022/07/11 02:48:28;;;;;;;0.70;0.60;;;16.30;62.80;16.90;97010.00;;;;5110519;28;20253;-87
2022/07/11 02:50:56;;;;;;;0.53;0.37;;;16.40;62.80;17.00;97008.00;;;;5110066;28;20205;-87
2022/07/11 02:53:23;;;;;;;0.50;0.40;;;16.40;62.80;17.00;96999.00;;;;5109585;28;20191;-87
2022/07/11 02:55:51;;;;;;;0.80;0.53;;;16.50;62.60;17.00;97003.00;;;;5109303;28;20707;-87
2022/07/11 02:58:18;;;;;;;0.50;0.40;;;16.50;62.60;17.10;97004.00;;;;5107992;28;20589;-87
2022/07/11 03:00:45;;;;;;;0.60;0.53;;;16.50;62.40;17.10;97008.00;;;;5110929;28;20655;-87
2022/07/11 03:03:12;;;;;;;0.60;0.50;;;16.60;62.40;17.20;97006.00;;;;5107905;28;20199;-87
2022/07/11 03:05:39;;;;;;;0.40;0.40;;;16.60;62.30;17.20;97005.00;;;;5107602;28;20238;-88
2022/07/11 03:08:08;;;;;;;2.17;0.53;;;16.60;62.30;17.20;97007.00;;;;5106420;28;20217;-87
2022/07/11 03:10:35;;;;;;;0.77;0.50;;;16.70;62.30;17.30;97003.00;;;;5108283;28;20190;-88
2022/07/11 03:13:02;;;;;;;0.40;0.40;;;16.70;62.10;17.30;97002.00;;;;5110925;28;20600;-87
2022/07/11 03:15:29;;;;;;;0.97;0.60;;;16.70;61.90;17.30;97000.00;;;;5109744;28;20249;-88
2022/07/11 03:17:56;;;;;;;0.60;0.60;;;16.80;61.90;17.40;97004.00;;;;5107911;28;20974;-87
2022/07/11 03:20:24;;;;;;;0.97;0.40;;;16.80;62.00;17.40;97004.00;;;;5108737;28;20707;-88
2022/07/11 03:22:51;;;;;;;0.50;0.50;;;16.90;61.80;17.40;96998.00;;;;5105855;28;20218;-88
2022/07/11 03:25:21;;;;;;;0.53;0.40;;;16.90;61.60;17.50;96998.00;;;;5106468;28;20291;-88
2022/07/11 03:27:48;;;;;;;1.70;0.67;;;16.90;61.70;17.50;96991.00;;;;5109822;28;20703;-87
2022/07/11 03:30:16;;;;;;;0.50;0.50;;;16.90;61.70;17.50;96992.00;;;;5101643;28;20207;-87
2022/07/11 03:32:43;;;;;;;0.77;0.77;;;17.00;61.70;17.60;96999.00;;;;5098089;28;20199;-86
2022/07/11 03:37:55;;;;;;;0.47;0.43;;;17.00;61.50;17.60;97000.00;;;;5110857;28;20208;-87
2022/07/11 03:40:24;;;;;;;0.97;0.47;;;17.10;61.50;17.60;96996.00;;;;5108686;28;20285;-87
2022/07/11 03:42:51;;;;;;;0.50;0.50;;;17.10;61.50;17.60;96998.00;;;;5109758;28;20577;-87
2022/07/11 03:45:19;;;;;;;0.50;0.50;;;17.00;61.30;17.70;96998.00;;;;5113960;28;20225;-87
2022/07/11 03:47:47;;;;;;;0.43;0.43;;;17.10;61.30;17.70;97008.00;;;;5116513;28;20222;-87
2022/07/11 03:50:14;;;;;;;0.60;0.57;;;17.10;61.10;17.70;97005.00;;;;5112495;27;20195;-88
2022/07/11 03:52:41;;;;;;;1.20;0.40;;;17.20;61.10;17.70;97006.00;;;;5127416;28;20550;-87
2022/07/11 03:55:09;;;;;;;0.77;0.50;;;17.20;61.10;17.70;97010.00;;;;5109781;28;20264;-88
2022/07/11 03:57:38;;;;;;;0.80;0.60;;;17.20;61.10;17.80;96998.00;;;;5114886;28;20494;-87
2022/07/11 04:00:08;;;;;;;0.40;0.40;;;17.20;61.10;17.80;97005.00;;;;5114272;28;20628;-87
2022/07/11 04:02:36;;;;;;;0.50;0.50;;;17.20;61.70;17.80;97006.00;;;;5110759;28;20612;-87
2022/07/11 04:05:04;;;;;;;0.70;0.70;;;17.20;61.00;17.80;97007.00;;;;5111147;28;20249;-87
2022/07/11 04:07:31;;;;;;;0.50;0.50;;;17.20;60.90;17.80;97005.00;;;;5114142;28;20234;-88
2022/07/11 04:09:59;;;;;;;1.03;0.70;;;17.30;61.00;17.80;97004.00;;;;5107174;28;20225;-87
2022/07/11 04:12:26;;;;;;;0.50;0.50;;;17.30;61.00;17.90;97003.00;;;;5113736;28;20217;-87
2022/07/11 04:14:54;;;;;;;0.63;0.40;;;17.30;61.00;17.90;97000.00;;;;5113091;28;20242;-87
2022/07/11 04:17:21;;;;;;;0.73;0.57;;;17.30;61.00;17.90;97005.00;;;;5109879;28;20217;-87
2022/07/11 04:19:48;;;;;;;0.83;0.53;;;17.30;61.10;18.00;97005.00;;;;5113517;28;20198;-87
2022/07/11 04:22:16;;;;;;;0.80;0.50;;;17.40;61.10;18.00;97007.00;;;;5110026;28;20253;-87
2022/07/11 04:24:43;;;;;;;0.73;0.40;;;17.40;61.10;18.00;97011.00;;;;5109986;28;20210;-84
2022/07/11 04:27:10;;;;;;;0.90;0.60;;;17.40;61.10;18.10;97011.00;;;;5112904;28;20203;-84
2022/07/11 04:29:37;;;;;;;0.60;0.50;;;17.50;61.10;18.10;97005.00;;;;5115017;28;20313;-84
2022/07/11 04:32:07;;;;;;;0.60;0.50;;;17.50;61.10;18.20;97005.00;;;;5114178;28;20215;-84
2022/07/11 04:34:34;;;;;;;0.80;0.53;;;17.50;61.10;18.20;97008.00;;;;5114204;28;20260;-83
2022/07/11 04:37:01;;;;;;;2.70;0.60;;;17.60;61.10;18.30;97014.00;;;;5111313;28;20222;-84
2022/07/11 04:39:28;;;;;;;0.70;0.70;;;17.60;61.10;18.30;97014.00;;;;5103909;28;20696;-84
2022/07/11 04:41:56;;;;;;;1.50;0.60;;;17.60;61.10;18.30;97014.00;;;;5105227;28;20223;-85
2022/07/11 04:44:23;;;;;;;1.03;0.50;;;17.70;61.10;18.40;97015.00;;;;5106313;28;20219;-85
2022/07/11 04:46:50;;;;;;;0.40;0.40;;;17.70;60.90;18.40;97018.00;;;;5112465;28;20217;-84
2022/07/11 04:49:19;;;;;;;0.90;0.60;;;17.70;61.70;18.50;97015.00;;;;5113353;28;20314;-83
2022/07/11 04:51:46;;;;;;;0.93;0.43;;;17.80;61.10;18.50;97012.00;;;;5116437;28;20190;-84
2022/07/11 04:54:13;;;;;;;2.43;0.60;;;17.80;61.10;18.50;97014.00;;;;5112303;28;20309;-83
2022/07/11 04:56:40;;;;;;;0.67;0.50;;;17.80;61.00;18.60;97018.00;;;;5114212;28;20191;-83
2022/07/11 04:59:08;;;;;;;0.87;0.77;;;17.90;61.10;18.60;97021.00;;;;5116899;28;20803;-84
2022/07/11 05:01:35;;;;;;;2.07;0.70;;;17.90;61.10;18.70;97020.00;;;;5117652;28;20187;-83
2022/07/11 05:04:03;;;;;;;0.63;0.33;;;18.00;61.20;18.70;97022.00;;;;5115217;28;20306;-84
2022/07/11 05:06:32;;;;;;;0.50;0.40;;;18.00;61.20;18.80;97026.00;;;;5113438;28;20195;-84
2022/07/11 05:08:59;;;;;;;0.60;0.50;;;18.00;61.40;18.80;97030.00;;;;5115535;28;20250;-83
2022/07/11 05:11:26;;;;;;;0.43;0.43;;;18.10;61.40;18.90;97030.00;;;;5111171;28;20264;-83
2022/07/11 05:13:54;;;;;;;0.57;0.53;;;18.10;61.30;18.90;97033.00;;;;5117777;28;20211;-84
2022/07/11 05:16:21;;;;;;;0.73;0.53;;;18.20;61.40;19.00;97038.00;;;;5109466;28;20234;-84
2022/07/11 05:18:48;;;;;;;0.60;0.50;;;18.20;61.30;19.10;97034.00;;;;5110138;28;20226;-84
2022/07/11 05:21:15;;;;;;;0.60;0.60;;;18.30;61.30;19.10;97043.00;;;;5112015;28;20222;-84
2022/07/11 05:23:44;;;;;;;1.37;0.67;;;18.30;61.10;19.20;97048.00;;;;5114001;28;20197;-84
2022/07/11 05:26:11;;;;;;;2.60;0.83;;;18.40;61.00;19.20;97048.00;;;;5110134;28;20218;-84
2022/07/11 05:28:38;;;;;;;0.30;0.30;;;18.40;60.70;19.30;97046.00;;;;5113024;28;20664;-84
2022/07/11 05:31:05;;;;;;;0.47;0.40;;;18.50;60.70;19.30;97057.00;;;;5112434;28;20252;-84
2022/07/11 05:33:32;;;;;;;1.73;0.50;;;18.50;60.50;19.40;97044.00;;;;5113653;28;20218;-84
2022/07/11 05:36:00;;;;;;;1.13;0.40;;;18.60;60.50;19.40;97058.00;;;;5100071;28;20267;-84
2022/07/11 05:38:27;;;;;;;1.03;0.70;;;18.60;60.30;19.50;97048.00;;;;5112546;28;20615;-83
2022/07/11 05:40:55;;;;;;;0.60;0.33;;;18.70;60.40;19.50;97052.00;;;;5105869;28;20218;-84
2022/07/11 05:43:23;;;;;;;0.73;0.50;;;18.70;60.40;19.60;97054.00;;;;5111969;28;20280;-84
2022/07/11 05:45:50;;;;;;;0.73;0.40;;;18.70;60.40;19.60;97060.00;;;;5107701;28;20297;-84
2022/07/11 05:48:17;;;;;;;0.43;0.40;;;18.80;60.60;19.60;97053.00;;;;5108941;28;20225;-84
2022/07/11 05:50:45;;;;;;;0.80;0.50;;;18.90;60.50;19.70;97061.00;;;;5112591;28;20307;-84
2022/07/11 05:53:12;;;;;;;2.00;0.60;;;18.90;60.40;19.70;97059.00;;;;5108550;28;20195;-86
2022/07/11 05:55:39;;;;;;;0.57;0.40;;;18.90;61.10;19.80;97063.00;;;;5111576;28;20279;-84
2022/07/11 05:58:08;;;;;;;2.60;0.60;;;19.00;60.30;19.80;97062.00;;;;5109215;28;20536;-84
2022/07/11 06:00:35;;;;;;;0.70;0.63;;;19.00;60.50;19.90;97057.00;;;;5110552;28;20297;-84
2022/07/11 06:03:03;;;;;;;1.13;0.60;;;19.00;60.30;19.90;97065.00;;;;5116368;28;20660;-84
2022/07/11 06:05:30;;;;;;;0.73;0.70;;;19.10;60.30;19.90;97062.00;;;;5111158;28;20250;-84
2022/07/11 06:10:42;;;;;;;0.40;0.40;;;19.20;60.30;20.00;97057.00;;;;5099193;28;20199;-84
2022/07/11 06:13:10;;;;;;;0.67;0.50;;;19.20;60.10;20.10;97057.00;;;;5100802;28;20202;-84
2022/07/11 06:15:37;;;;;;;0.77;0.47;;;19.30;60.10;20.10;97050.00;;;;5101615;28;20861;-84
2022/07/11 06:18:05;;;;;;;0.43;0.40;;;19.30;60.40;20.20;97058.00;;;;5099206;28;20193;-84
2022/07/11 06:20:32;;;;;;;3.13;0.57;;;19.30;60.20;20.30;97051.00;;;;5110019;27;20679;-85
2022/07/11 06:22:59;;;;;;;0.47;0.40;;;19.40;60.10;20.40;97059.00;;;;5113632;28;20296;-84
2022/07/11 06:25:26;;;;;;;0.97;0.60;;;19.50;60.30;20.50;97050.00;;;;5108475;28;20239;-85
2022/07/11 06:27:53;;;;;;;0.50;0.50;;;19.50;60.20;20.50;97056.00;;;;5097208;28;20264;-84
2022/07/11 06:30:22;;;;;;;2.33;0.80;;;19.60;60.10;20.60;97052.00;;;;5109823;28;20282;-84
2022/07/11 06:32:49;;;;;;;3.10;0.77;;;19.70;60.30;20.70;97051.00;;;;5115967;28;20199;-84
2022/07/11 06:35:16;;;;;;;0.93;0.80;;;19.80;60.40;20.80;97060.00;;;;5112873;28;20234;-84
2022/07/11 06:37:43;;;;;;;0.40;0.40;;;19.80;60.30;20.90;97058.00;;;;5113023;28;20252;-84
2022/07/11 06:40:11;;;;;;;1.20;0.43;;;19.90;60.20;21.00;97061.00;;;;5116238;28;20218;-84
2022/07/11 06:42:39;;;;;;;0.53;0.30;;;20.00;60.00;21.10;97067.00;;;;5085029;28;20204;-84
2022/07/11 06:45:08;;;;;;;0.73;0.40;;;20.00;60.70;21.20;97061.00;;;;5109888;28;20226;-85
2022/07/11 06:47:37;;;;;;;1.27;0.70;;;20.10;59.90;21.20;97063.00;;;;5109157;28;20241;-85
2022/07/11 06:50:05;;;;;;;1.17;0.37;;;20.20;59.60;21.30;97056.00;;;;5107298;28;20231;-84
2022/07/11 06:52:32;;;;;;;0.87;0.40;;;20.30;59.50;21.40;97062.00;;;;5109466;28;20205;-85
2022/07/11 06:54:59;;;;;;;0.77;0.50;;;20.30;59.30;21.50;97058.00;;;;5084468;22;20883;-80
2022/07/11 06:57:26;;;;;;;1.57;0.60;;;20.40;59.10;21.50;97055.00;;;;5063774;28;20223;-77
2022/07/11 06:59:53;;;;;;;1.50;0.47;;;20.50;59.00;21.60;97063.00;;;;5059258;28;20321;-78
2022/07/11 07:02:23;;;;;;;1.77;0.50;;;20.60;59.00;21.70;97061.00;;;;5055344;28;20665;-79
2022/07/11 07:04:51;;;;;;;0.70;0.57;;;20.60;58.90;21.80;97058.00;;;;5055417;28;20661;-80
2022/07/11 07:07:18;;;;;;;1.17;0.60;;;20.70;58.90;21.80;97057.00;;;;5056505;28;20225;-77
2022/07/11 07:09:45;;;;;;;0.57;0.57;;;20.80;58.90;21.90;97068.00;;;;5074544;22;20322;-87
2022/07/11 07:12:14;;;;;;;0.63;0.40;;;20.80;59.10;22.00;97066.00;;;;5026488;28;20208;-85
2022/07/11 07:14:42;;;;;;;2.50;0.70;;;20.90;58.90;22.10;97063.00;;;;5050537;28;20253;-88
2022/07/11 07:17:09;;;;;;;0.90;0.60;;;21.00;58.80;22.20;97063.00;;;;5050776;28;20553;-88
2022/07/11 07:19:36;;;;;;;1.13;0.50;;;21.10;58.80;22.30;97068.00;;;;5043761;28;21212;-87
2022/07/11 07:22:16;;;;;;;1.10;0.67;;;21.20;58.80;22.40;97061.00;;;;5044743;28;20208;-88
2022/07/11 07:24:43;;;;;;;2.47;0.90;;;21.10;58.50;22.50;97071.00;;;;5049236;28;20204;-87
2022/07/11 07:27:11;;;;;;;0.93;0.60;;;21.30;58.70;22.60;97056.00;;;;5051838;28;20311;-87
2022/07/11 07:29:38;;;;;;;5.17;0.77;;;21.40;58.50;22.70;97070.00;;;;5051176;28;20224;-86
2022/07/11 07:32:06;;;;;;;0.63;0.50;;;21.60;58.40;22.80;97075.00;;;;5059045;28;20196;-88
2022/07/11 07:34:34;;;;;;;1.70;0.50;;;21.60;58.30;22.90;97080.00;;;;5064506;28;20197;-88
2022/07/11 07:37:01;;;;;;;2.43;0.63;;;21.70;58.40;23.00;97068.00;;;;5052736;28;20228;-87
2022/07/11 07:39:30;;;;;;;0.87;0.50;;;21.80;58.20;23.10;97078.00;;;;5047521;28;20213;-87
2022/07/11 07:41:57;;;;;;;1.07;0.50;;;21.90;57.90;23.10;97076.00;;;;5057674;28;20192;-87
2022/07/11 07:44:27;;;;;;;1.00;0.70;;;22.00;57.60;23.20;97074.00;;;;5043955;28;20228;-87
2022/07/11 07:46:55;;;;;;;0.97;0.70;;;23.00;58.00;23.30;97068.00;;;;5049220;28;20217;-86
2022/07/11 07:49:22;;;;;;;1.87;0.70;;;22.20;57.60;23.40;97075.00;;;;5054695;28;20262;-88
2022/07/11 07:51:49;;;;;;;1.70;0.70;;;22.20;57.70;23.60;97063.00;;;;5050123;28;20197;-88
2022/07/11 07:54:16;;;;;;;2.07;0.70;;;22.30;57.50;23.70;97074.00;;;;5045184;28;20685;-87
2022/07/11 07:56:45;;;;;;;0.97;0.63;;;22.40;57.20;23.70;97071.00;;;;5050475;28;20514;-86
2022/07/11 07:59:12;;;;;;;1.67;0.60;;;22.50;56.90;23.80;97068.00;;;;5045607;28;20686;-88
2022/07/11 08:01:40;;;;;;;0.63;0.50;;;22.50;56.50;23.90;97072.00;;;;5058768;28;20717;-86
2022/07/11 08:04:11;;;;;;;0.63;0.37;;;22.70;56.40;23.90;97072.00;;;;5053908;28;20251;-87
2022/07/11 08:06:40;;;;;;;1.63;0.50;;;22.70;55.60;23.90;97057.00;;;;5054263;28;20219;-86
2022/07/11 08:09:07;;;;;;;1.83;0.50;;;22.40;55.20;23.90;97066.00;;;;5053550;28;20251;-87
2022/07/11 08:11:36;;;;;;;1.50;0.50;;;22.80;55.20;24.00;97062.00;;;;5055945;28;20223;-86
2022/07/11 08:14:07;;;;;;;0.37;0.37;;;22.80;55.10;24.00;97066.00;;;;5055072;28;20231;-85
2022/07/11 08:16:35;;;;;;;0.90;0.50;;;22.90;55.30;24.00;97061.00;;;;5054881;28;20215;-86
2022/07/11 08:19:05;;;;;;;1.63;0.47;;;22.90;55.30;24.10;97065.00;;;;5054616;28;20193;-86
2022/07/11 08:21:34;;;;;;;0.63;0.30;;;23.00;55.50;24.10;97059.00;;;;5051224;28;20203;-87
2022/07/11 08:24:02;;;;;;;0.67;0.40;;;23.00;55.10;24.20;97059.00;;;;5052171;28;20206;-87
2022/07/11 08:26:29;;;;;;;2.73;0.57;;;23.10;55.20;24.20;97061.00;;;;5061609;28;20231;-88
2022/07/11 08:28:56;;;;;;;1.27;0.80;;;23.20;55.10;24.20;97063.00;;;;5063637;28;20718;-87
2022/07/11 08:31:26;;;;;;;0.63;0.40;;;23.20;54.60;24.30;97066.00;;;;5055308;28;20190;-88
2022/07/11 08:33:57;;;;;;;1.13;0.50;;;23.20;54.70;24.30;97060.00;;;;5051462;28;20219;-87
2022/07/11 08:36:27;;;;;;;0.83;0.40;;;23.20;55.00;24.50;97059.00;;;;5060827;28;20222;-87
2022/07/11 08:38:56;;;;;;;0.70;0.60;;;23.30;55.30;24.80;97059.00;;;;5064981;28;20208;-87
2022/07/11 08:41:23;;;;;;;0.40;0.40;;;23.50;55.00;24.90;97057.00;;;;5067742;28;20216;-87
2022/07/11 08:43:53;;;;;;;0.70;0.40;;;23.60;55.30;25.00;97056.00;;;;5064885;28;20196;-86
2022/07/11 08:46:21;;;;;;;0.70;0.50;;;23.70;54.60;25.00;97057.00;;;;5057622;28;20224;-87
2022/07/11 08:48:52;;;;;;;0.40;0.40;;;23.80;54.30;25.00;97051.00;;;;5054729;28;20220;-87
2022/07/11 08:51:20;;;;;;;0.40;0.40;;;23.80;53.70;24.90;97062.00;;;;5054087;28;20204;-87
2022/07/11 08:53:47;;;;;;;0.33;0.33;;;23.80;53.50;24.80;97068.00;;;;5052952;28;20635;-87
2022/07/11 08:56:17;;;;;;;0.53;0.50;;;23.80;53.50;24.70;97060.00;;;;5051094;28;20277;-87
2022/07/11 08:58:48;;;;;;;1.13;0.40;;;23.80;53.40;24.60;97059.00;;;;5055632;28;20195;-87
2022/07/11 09:01:19;;;;;;;0.40;0.40;;;23.70;53.20;24.50;97066.00;;;;5051623;28;20230;-88
2022/07/11 09:03:46;;;;;;;0.83;0.40;;;23.70;53.10;24.40;97062.00;;;;5054989;28;20697;-87
2022/07/11 09:06:15;;;;;;;0.53;0.30;;;23.60;53.00;24.40;97069.00;;;;5052776;28;20247;-88
2022/07/11 09:08:42;;;;;;;0.57;0.47;;;23.60;53.20;24.30;97064.00;;;;5052255;28;20204;-88
2022/07/11 09:11:10;;;;;;;0.30;0.30;;;23.50;53.60;24.30;97061.00;;;;5052967;28;20252;-87
2022/07/11 09:13:37;;;;;;;0.60;0.30;;;23.50;53.10;24.30;97051.00;;;;5049912;28;20229;-87
2022/07/11 09:16:07;;;;;;;0.30;0.30;;;23.40;53.10;24.30;97055.00;;;;5049940;28;20216;-87
2022/07/11 09:18:38;;;;;;;0.40;0.30;;;23.40;53.20;24.30;97055.00;;;;5052824;28;20325;-88
2022/07/11 09:26:45;;;;;;;0.83;0.37;;;23.40;53.80;24.50;97050.00;;;;5051447;28;20228;-88
2022/07/11 09:29:18;;;;;;;0.20;0.20;;;23.50;54.00;24.60;97048.00;;;;5048055;28;20220;-87
2022/07/11 09:31:46;;;;;;;0.97;0.33;;;23.50;54.00;24.80;97042.00;;;;5050127;28;20195;-88
2022/07/11 09:34:15;;;;;;;0.93;0.43;;;23.60;54.10;24.90;97042.00;;;;5052208;28;20282;-87
2022/07/11 09:36:46;;;;;;;0.40;0.30;;;23.70;54.10;25.00;97045.00;;;;5048487;28;20713;-85
2022/07/11 09:39:18;;;;;;;0.27;0.27;;;23.80;54.10;25.20;97045.00;;;;5052166;28;20246;-87
2022/07/11 09:41:47;;;;;;;1.30;0.30;;;23.90;54.00;25.30;97047.00;;;;5051871;28;20208;-87
2022/07/11 09:44:17;;;;;;;0.20;0.20;;;24.00;53.90;25.30;97042.00;;;;5050778;28;20189;-88
2022/07/11 09:46:49;;;;;;;0.30;0.30;;;24.10;53.70;25.30;97053.00;;;;5049431;28;20252;-87
2022/07/11 09:49:17;;;;;;;0.20;0.20;;;24.10;53.50;25.20;97047.00;;;;5050326;28;20209;-87
2022/07/11 09:51:45;;;;;;;1.23;0.53;;;24.20;53.20;25.20;97050.00;;;;5050039;28;20265;-87
2022/07/11 09:54:12;;;;;;;0.63;0.40;;;24.20;53.00;25.10;97050.00;;;;5046037;28;20235;-87
2022/07/11 09:56:45;;;;;;;0.40;0.40;;;24.20;52.70;25.00;97042.00;;;;5051458;28;20212;-87
2022/07/11 09:59:13;;;;;;;0.30;0.30;;;24.10;52.80;24.90;97052.00;;;;5048233;28;20195;-87
2022/07/11 10:01:41;;;;;;;0.30;0.23;;;24.10;52.70;24.80;97049.00;;;;5040706;28;20291;-89
2022/07/11 10:04:10;;;;;;;0.70;0.20;;;24.00;52.70;24.80;97052.00;;;;5045381;28;20204;-88
2022/07/11 10:06:39;;;;;;;0.20;0.20;;;24.00;52.70;24.70;97066.00;;;;5058544;28;20227;-88
2022/07/11 10:09:06;;;;;;;0.63;0.20;;;23.90;52.70;24.60;97066.00;;;;5059038;28;20239;-87
2022/07/11 10:11:35;;;;;;;0.70;0.30;;;23.90;52.80;24.60;97065.00;;;;5068133;28;20222;-87
2022/07/11 10:14:07;;;;;;;0.20;0.20;;;23.80;52.90;24.50;97063.00;;;;5057912;28;20743;-87
2022/07/11 10:16:57;;;;;;;0.83;0.37;;;23.70;52.80;24.50;97063.00;;;;5056843;28;20239;-89
2022/07/11 10:19:40;;;;;;;0.30;0.30;;;23.70;53.00;24.40;97063.00;;;;5057535;28;20201;-89
2022/07/11 10:22:22;;;;;;;0.43;0.23;;;23.70;53.00;24.30;97068.00;;;;5056437;28;20654;-89
2022/07/11 10:25:02;;;;;;;0.50;0.20;;;23.60;52.80;24.30;97069.00;;;;5056225;28;20196;-88
2022/07/11 10:27:40;;;;;;;0.30;0.30;;;23.50;52.80;24.20;97078.00;;;;5055342;28;21049;-88
2022/07/11 10:30:09;;;;;;;1.07;0.50;;;23.50;53.20;24.20;97086.00;;;;5056407;28;20218;-88
2022/07/11 10:33:06;;;;;;;0.50;0.30;;;23.40;53.30;24.10;97075.00;;;;5055684;28;20203;-88
2022/07/11 10:35:34;;;;;;;0.50;0.50;;;23.40;53.20;24.00;97079.00;;;;5055838;28;20303;-88
2022/07/11 10:38:07;;;;;;;0.57;0.37;;;23.30;53.30;24.00;97088.00;;;;5054010;28;20220;-88
2022/07/11 10:40:46;;;;;;;0.60;0.53;;;23.30;53.40;23.90;97087.00;;;;5055649;28;20211;-88
2022/07/11 10:43:31;;;;;;;0.50;0.50;;;23.20;53.50;23.90;97091.00;;;;5051484;28;20208;-88
2022/07/11 10:46:02;;;;;;;4.90;2.97;;;23.20;53.50;23.80;97085.00;;;;5055596;28;20312;-87
2022/07/11 10:48:32;;;;;;;0.50;0.40;;;23.10;53.50;23.80;97087.00;;;;5053775;28;20298;-88
2022/07/11 10:51:15;;;;;;;0.30;0.30;;;23.10;53.70;23.80;97083.00;;;;5056490;28;20761;-86
2022/07/11 10:53:50;;;;;;;0.70;0.50;;;23.10;54.00;23.80;97081.00;;;;5058302;28;20247;-87
2022/07/11 10:56:57;;;;;;;0.40;0.40;;;23.00;54.10;23.80;97086.00;;;;5056945;28;20227;-87
2022/07/11 10:59:25;;;;;;;0.50;0.50;;;23.00;54.50;23.80;97085.00;;;;5055735;28;20222;-88
2022/07/11 11:02:15;;;;;;;0.43;0.43;;;23.00;54.50;23.90;97086.00;;;;5051908;28;20212;-88
2022/07/11 11:04:48;;;;;;;0.90;0.83;;;23.10;55.00;24.00;97085.00;;;;5056306;28;20267;-86
2022/07/11 11:07:51;;;;;;;0.47;0.47;;;23.10;54.80;24.10;97089.00;;;;5053195;28;20198;-87
2022/07/11 11:10:52;;;;;;;1.93;0.63;;;23.20;54.80;24.30;97087.00;;;;5053863;28;20227;-87
2022/07/11 11:13:20;;;;;;;0.60;0.47;;;23.20;54.80;24.40;97080.00;;;;5052488;28;20319;-88